createdAt,value
2018-06-15T00:00:52.713Z,0
2018-06-15T00:02:02.856Z,0
2018-06-15T00:03:12.688Z,0
2018-06-15T00:04:22.755Z,0
2018-06-15T00:05:32.600Z,0
2018-06-15T00:06:42.681Z,0
2018-06-15T00:07:53.308Z,0
2018-06-15T00:09:03.941Z,0
2018-06-15T00:10:13.741Z,0
2018-06-15T00:11:23.800Z,0
2018-06-15T00:12:33.868Z,0
2018-06-15T00:13:43.935Z,0
2018-06-15T00:14:54.009Z,0
2018-06-15T00:16:04.109Z,0
2018-06-15T00:17:13.918Z,0
2018-06-15T00:18:23.741Z,0
2018-06-15T00:19:33.820Z,0
2018-06-15T00:20:43.899Z,0
2018-06-15T00:21:53.963Z,0
2018-06-15T00:23:04.077Z,0
2018-06-15T00:24:13.889Z,0
2018-06-15T00:25:23.962Z,0
2018-06-15T00:26:34.045Z,0
2018-06-15T00:27:44.142Z,0
2018-06-15T00:28:54.217Z,0
2018-06-15T00:30:04.313Z,0
2018-06-15T00:31:14.156Z,0
2018-06-15T00:32:24.253Z,0
2018-06-15T00:33:34.317Z,0
2018-06-15T00:34:44.131Z,0
2018-06-15T00:35:54.198Z,0
2018-06-15T00:37:04.267Z,0
2018-06-15T00:38:14.385Z,0
2018-06-15T00:39:24.472Z,0
2018-06-15T00:40:34.542Z,0
2018-06-15T00:41:44.614Z,0
2018-06-15T00:42:54.701Z,0
2018-06-15T00:44:04.559Z,0
2018-06-15T00:45:14.625Z,0
2018-06-15T00:46:24.423Z,0
2018-06-15T00:47:33.715Z,0
2018-06-15T00:48:43.522Z,0
2018-06-15T00:49:53.588Z,0
2018-06-15T00:51:03.388Z,0
2018-06-15T00:52:13.177Z,0
2018-06-15T00:53:23.277Z,0
2018-06-15T00:54:33.344Z,0
2018-06-15T00:55:43.153Z,0
2018-06-15T00:56:53.218Z,0
2018-06-15T00:58:03.300Z,0
2018-06-15T00:59:13.356Z,0
2018-06-15T01:00:23.433Z,0
2018-06-15T01:01:33.511Z,0
2018-06-15T01:02:43.591Z,0
2018-06-15T01:03:53.645Z,0
2018-06-15T01:05:03.735Z,0
2018-06-15T01:06:13.800Z,0
2018-06-15T01:07:23.934Z,0
2018-06-15T01:08:34.037Z,0
2018-06-15T01:09:44.124Z,0
2018-06-15T01:10:54.219Z,0
2018-06-15T01:12:04.300Z,0
2018-06-15T01:13:14.367Z,0
2018-06-15T01:14:24.446Z,0
2018-06-15T01:15:33.985Z,0
2018-06-15T01:16:44.048Z,0
2018-06-15T01:17:54.117Z,0
2018-06-15T01:19:04.204Z,0
2018-06-15T01:20:14.010Z,0
2018-06-15T01:21:23.856Z,0
2018-06-15T01:22:33.674Z,0
2018-06-15T01:23:43.480Z,0
2018-06-15T01:24:53.615Z,0
2018-06-15T01:26:03.434Z,0
2018-06-15T01:27:13.249Z,0
2018-06-15T01:28:23.331Z,0
2018-06-15T01:29:33.127Z,0
2018-06-15T01:30:43.189Z,0
2018-06-15T01:31:52.986Z,0
2018-06-15T01:33:03.070Z,0
2018-06-15T01:34:13.141Z,0
2018-06-15T01:35:23.212Z,0
2018-06-15T01:36:33.267Z,0
2018-06-15T01:37:43.075Z,0
2018-06-15T01:38:53.168Z,0
2018-06-15T01:40:02.715Z,0
2018-06-15T01:41:12.799Z,0
2018-06-15T01:42:22.863Z,0
2018-06-15T01:43:32.924Z,0
2018-06-15T01:44:42.999Z,0
2018-06-15T01:45:53.083Z,0
2018-06-15T01:47:03.159Z,0
2018-06-15T01:48:12.958Z,0
2018-06-15T01:49:23.042Z,0
2018-06-15T01:50:32.851Z,0
2018-06-15T01:51:42.920Z,0
2018-06-15T01:52:52.471Z,0
2018-06-15T01:54:02.534Z,0
2018-06-15T01:55:12.343Z,0
2018-06-15T01:56:22.153Z,0
2018-06-15T01:57:32.238Z,0
2018-06-15T01:58:42.313Z,0
2018-06-15T01:59:52.385Z,0
2018-06-15T02:01:02.244Z,0
2018-06-15T02:02:12.127Z,0
2018-06-15T02:03:22.183Z,0
2018-06-15T02:04:31.976Z,0
2018-06-15T02:05:42.055Z,0
2018-06-15T02:06:52.129Z,0
2018-06-15T02:08:02.200Z,0
2018-06-15T02:09:12.262Z,0
2018-06-15T02:10:22.337Z,0
2018-06-15T02:11:32.494Z,0
2018-06-15T02:12:42.306Z,0
2018-06-15T02:13:52.370Z,0
2018-06-15T02:15:02.489Z,0
2018-06-15T02:16:12.548Z,0
2018-06-15T02:17:22.613Z,0
2018-06-15T02:18:32.676Z,0
2018-06-15T02:19:42.479Z,0
2018-06-15T02:20:52.284Z,0
2018-06-15T02:22:02.349Z,0
2018-06-15T02:23:12.418Z,0
2018-06-15T02:24:22.484Z,0
2018-06-15T02:25:32.551Z,0
2018-06-15T02:26:42.369Z,0
2018-06-15T02:27:52.171Z,4
2018-06-15T02:29:01.971Z,0
2018-06-15T02:30:11.779Z,0
2018-06-15T02:31:21.816Z,0
2018-06-15T02:32:31.913Z,4
2018-06-15T02:33:41.714Z,0
2018-06-15T02:34:51.526Z,4
2018-06-15T02:36:01.604Z,4
2018-06-15T02:37:11.711Z,4
2018-06-15T02:38:21.804Z,4
2018-06-15T02:39:31.906Z,4
2018-06-15T02:40:41.973Z,8
2018-06-15T02:41:51.774Z,4
2018-06-15T02:43:01.606Z,8
2018-06-15T02:44:11.669Z,8
2018-06-15T02:45:21.839Z,8
2018-06-15T02:46:31.662Z,8
2018-06-15T02:47:41.764Z,12
2018-06-15T02:48:51.840Z,12
2018-06-15T02:50:01.674Z,16
2018-06-15T02:51:11.749Z,20
2018-06-15T02:52:21.818Z,20
2018-06-15T02:53:31.898Z,20
2018-06-15T02:54:41.993Z,28
2018-06-15T02:55:51.796Z,28
2018-06-15T02:57:01.862Z,32
2018-06-15T02:58:11.668Z,36
2018-06-15T02:59:21.766Z,40
2018-06-15T03:00:31.928Z,44
2018-06-15T03:01:42.006Z,48
2018-06-15T03:02:52.104Z,52
2018-06-15T03:34:33.464Z,300
2018-06-15T03:35:43.524Z,324
2018-06-15T03:36:53.603Z,348
2018-06-15T03:38:03.660Z,376
2018-06-15T03:39:13.716Z,400
2018-06-15T03:40:23.792Z,432
2018-06-15T03:41:33.860Z,460
2018-06-15T03:42:43.927Z,488
2018-06-15T03:43:53.997Z,516
2018-06-15T03:45:04.070Z,524
2018-06-15T03:46:14.199Z,524
2018-06-15T03:47:24.269Z,524
2018-06-15T03:48:34.070Z,520
2018-06-15T03:49:44.146Z,504
2018-06-15T03:50:54.223Z,488
2018-06-15T03:52:04.298Z,468
2018-06-15T03:53:14.117Z,452
2018-06-15T03:54:23.919Z,440
2018-06-15T03:55:33.995Z,432
2018-06-15T03:56:44.075Z,424
2018-06-15T03:57:53.882Z,420
2018-06-15T03:59:04.049Z,416
2018-06-15T04:00:14.116Z,412
2018-06-15T04:01:23.929Z,420
2018-06-15T04:02:34.021Z,428
2018-06-15T04:03:44.143Z,440
2018-06-15T04:04:53.947Z,460
2018-06-15T04:06:04.029Z,484
2018-06-15T04:07:14.118Z,508
2018-06-15T04:08:24.206Z,536
2018-06-15T04:09:34.059Z,564
2018-06-15T04:10:44.136Z,600
2018-06-15T04:11:53.930Z,620
2018-06-15T04:13:04.289Z,636
2018-06-15T04:14:14.446Z,640
2018-06-15T04:15:24.253Z,632
2018-06-15T04:16:34.088Z,624
2018-06-15T04:17:44.157Z,616
2018-06-15T04:18:54.216Z,604
2018-06-15T04:20:04.308Z,596
2018-06-15T04:21:14.399Z,588
2018-06-15T04:22:24.465Z,580
2018-06-15T04:23:34.537Z,572
2018-06-15T04:24:44.590Z,564
2018-06-15T04:25:54.659Z,568
2018-06-15T04:27:04.746Z,584
2018-06-15T04:28:14.819Z,608
2018-06-15T04:29:24.886Z,628
2018-06-15T04:30:34.952Z,648
2018-06-15T04:31:45.024Z,660
2018-06-15T04:32:55.105Z,676
2018-06-15T04:34:04.951Z,692
2018-06-15T04:35:15.048Z,716
2018-06-15T04:36:24.861Z,748
2018-06-15T04:37:34.665Z,780
2018-06-15T04:38:44.473Z,812
2018-06-15T04:39:54.546Z,840
2018-06-15T04:41:04.356Z,868
2018-06-15T04:42:14.439Z,884
2018-06-15T04:43:24.523Z,896
2018-06-15T04:44:34.323Z,908
2018-06-15T04:45:44.407Z,920
2018-06-15T04:46:54.472Z,928
2018-06-15T04:48:04.547Z,936
2018-06-15T04:49:14.660Z,956
2018-06-15T04:50:24.477Z,984
2018-06-15T04:51:34.285Z,1000
2018-06-15T04:52:44.381Z,1008
2018-06-15T04:53:54.451Z,1012
2018-06-15T04:55:04.520Z,1024
2018-06-15T04:56:14.395Z,1032
2018-06-15T04:57:24.271Z,1052
2018-06-15T04:58:34.341Z,1072
2018-06-15T04:59:44.164Z,1084
2018-06-15T05:00:54.270Z,1092
2018-06-15T05:02:04.101Z,1088
2018-06-15T05:03:14.286Z,1080
2018-06-15T05:04:24.227Z,1064
2018-06-15T05:05:34.309Z,1056
2018-06-15T05:06:44.396Z,1056
2018-06-15T05:07:54.462Z,1056
2018-06-15T05:09:04.274Z,1048
2018-06-15T05:10:14.092Z,1052
2018-06-15T05:11:23.920Z,1056
2018-06-15T05:12:33.781Z,1084
2018-06-15T05:13:43.599Z,1128
2018-06-15T05:14:53.403Z,1212
2018-06-15T05:16:03.479Z,1316
2018-06-15T05:17:13.382Z,1444
2018-06-15T05:18:23.494Z,1584
2018-06-15T05:19:33.589Z,1724
2018-06-15T05:20:43.666Z,1852
2018-06-15T05:21:53.734Z,1992
2018-06-15T05:23:03.800Z,2164
2018-06-15T05:24:13.681Z,2400
2018-06-15T05:25:23.775Z,2880
2018-06-15T05:26:33.840Z,3016
2018-06-15T05:27:43.920Z,3296
2018-06-15T05:28:53.992Z,3912
2018-06-15T05:30:04.079Z,7676
2018-06-15T05:31:14.137Z,4760
2018-06-15T05:32:24.199Z,8780
2018-06-15T05:33:34.261Z,11156
2018-06-15T05:34:44.072Z,6612
2018-06-15T05:35:54.137Z,5000
2018-06-15T05:37:04.233Z,4356
2018-06-15T05:38:14.296Z,4092
2018-06-15T05:39:24.113Z,3860
2018-06-15T05:40:34.196Z,3680
2018-06-15T05:41:44.279Z,3544
2018-06-15T05:42:54.369Z,3404
2018-06-15T05:44:03.930Z,3288
2018-06-15T05:45:14.024Z,3160
2018-06-15T05:46:24.104Z,2992
2018-06-15T05:47:34.174Z,2808
2018-06-15T05:48:44.256Z,2672
2018-06-15T05:49:53.923Z,2568
2018-06-15T05:51:04.107Z,2464
2018-06-15T05:52:14.181Z,2364
2018-06-15T05:53:24.260Z,2288
2018-06-15T05:54:34.071Z,2248
2018-06-15T05:55:44.280Z,2208
2018-06-15T05:56:54.505Z,2156
2018-06-15T05:58:04.301Z,2092
2018-06-15T05:59:14.372Z,2008
2018-06-15T06:00:24.451Z,1932
2018-06-15T06:01:34.543Z,1864
2018-06-15T06:02:44.621Z,1796
2018-06-15T06:03:54.949Z,1748
2018-06-15T06:05:05.216Z,1696
2018-06-15T06:06:15.292Z,1648
2018-06-15T06:07:25.375Z,1608
2018-06-15T06:08:35.448Z,1544
2018-06-15T06:09:45.528Z,1512
2018-06-15T06:10:55.601Z,1488
2018-06-15T06:12:05.678Z,1480
2018-06-15T06:13:15.480Z,1472
2018-06-15T06:14:25.553Z,1452
2018-06-15T06:15:35.651Z,1420
2018-06-15T06:16:45.516Z,1364
2018-06-15T06:17:55.583Z,1296
2018-06-15T06:19:05.644Z,1232
2018-06-15T06:20:15.614Z,1192
2018-06-15T06:21:25.427Z,1168
2018-06-15T06:22:35.533Z,1152
2018-06-15T06:23:45.602Z,1148
2018-06-15T06:24:55.690Z,1168
2018-06-15T06:26:05.500Z,1200
2018-06-15T06:27:15.336Z,1232
2018-06-15T06:28:25.407Z,1268
2018-06-15T06:29:35.479Z,1280
2018-06-15T06:30:45.551Z,1288
2018-06-15T06:31:55.620Z,1288
2018-06-15T06:33:05.702Z,1284
2018-06-15T06:34:15.767Z,1288
2018-06-15T06:35:25.856Z,1292
2018-06-15T06:36:35.974Z,1308
2018-06-15T06:37:45.539Z,1336
2018-06-15T06:38:55.603Z,1356
2018-06-15T06:40:05.689Z,1372
2018-06-15T06:41:15.507Z,1384
2018-06-15T06:42:25.622Z,1376
2018-06-15T06:43:35.688Z,1344
2018-06-15T06:44:45.545Z,1308
2018-06-15T06:45:55.601Z,1284
2018-06-15T06:47:05.414Z,1268
2018-06-15T06:48:15.527Z,1276
2018-06-15T06:49:25.342Z,1300
2018-06-15T06:50:35.560Z,1336
2018-06-15T06:51:45.753Z,1376
2018-06-15T06:52:55.823Z,1412
2018-06-15T06:54:05.903Z,1428
2018-06-15T06:55:15.717Z,1452
2018-06-15T06:56:25.280Z,1468
2018-06-15T06:57:35.371Z,1500
2018-06-15T06:58:45.441Z,1528
2018-06-15T06:59:55.509Z,1548
2018-06-15T07:01:05.318Z,1564
2018-06-15T07:02:15.142Z,1572
2018-06-15T07:03:24.970Z,1580
2018-06-15T07:04:35.043Z,1572
2018-06-15T07:05:45.105Z,1560
2018-06-15T07:06:55.187Z,1548
2018-06-15T07:08:04.997Z,1540
2018-06-15T07:09:14.812Z,1536
2018-06-15T07:10:24.885Z,1528
2018-06-15T07:11:34.698Z,1528
2018-06-15T07:12:44.778Z,1532
2018-06-15T07:13:54.584Z,1540
2018-06-15T07:15:04.655Z,1540
2018-06-15T07:16:14.924Z,1536
2018-06-15T07:17:25.268Z,1528
2018-06-15T07:18:35.347Z,1524
2018-06-15T07:19:45.400Z,1508
2018-06-15T07:20:55.481Z,1488
2018-06-15T07:22:05.562Z,1468
2018-06-15T07:23:15.377Z,1460
2018-06-15T07:24:25.440Z,1456
2018-06-15T07:25:35.528Z,1472
2018-06-15T07:26:45.629Z,1468
2018-06-15T07:27:55.706Z,1452
2018-06-15T07:29:05.519Z,1436
2018-06-15T07:30:15.596Z,1404
2018-06-15T07:31:25.696Z,1352
2018-06-15T07:32:35.251Z,1304
2018-06-15T07:33:45.345Z,1276
2018-06-15T07:34:55.442Z,1272
2018-06-15T07:36:05.549Z,1268
2018-06-15T07:37:15.630Z,1268
2018-06-15T07:38:25.760Z,1264
2018-06-15T07:39:35.568Z,1256
2018-06-15T07:40:45.434Z,1244
2018-06-15T07:41:55.512Z,1232
2018-06-15T07:43:05.600Z,1216
2018-06-15T07:44:15.424Z,1188
2018-06-15T07:45:25.501Z,1160
2018-06-15T07:46:35.623Z,1144
2018-06-15T07:47:45.185Z,1136
2018-06-15T07:48:55.276Z,1140
2018-06-15T07:50:05.079Z,1152
2018-06-15T07:51:14.895Z,1176
2018-06-15T07:52:25.038Z,1204
2018-06-15T07:53:34.935Z,1220
2018-06-15T07:54:44.999Z,1224
2018-06-15T07:55:55.072Z,1224
2018-06-15T07:57:05.203Z,1232
2018-06-15T07:58:15.317Z,1248
2018-06-15T07:59:25.548Z,1272
2018-06-15T08:00:35.134Z,1300
2018-06-15T08:01:45.203Z,1336
2018-06-15T08:02:55.277Z,1360
2018-06-15T08:04:05.351Z,1384
2018-06-15T08:05:15.420Z,1396
2018-06-15T08:06:25.491Z,1416
2018-06-15T08:07:35.303Z,1440
2018-06-15T08:08:44.868Z,1472
2018-06-15T08:09:54.742Z,1492
2018-06-15T08:11:04.618Z,1508
2018-06-15T08:12:14.713Z,1524
2018-06-15T08:13:24.536Z,1516
2018-06-15T08:14:35.403Z,1500
2018-06-15T08:15:45.775Z,1484
2018-06-15T08:16:55.653Z,1464
2018-06-15T08:18:06.048Z,1448
2018-06-15T08:19:16.781Z,1432
2018-06-15T08:20:27.173Z,1416
2018-06-15T08:21:37.322Z,1420
2018-06-15T08:22:47.420Z,1424
2018-06-15T08:23:57.517Z,1436
2018-06-15T08:25:07.378Z,1448
2018-06-15T08:26:17.194Z,1456
2018-06-15T08:27:27.060Z,1468
2018-06-15T08:28:36.909Z,1484
2018-06-15T08:29:46.996Z,1496
2018-06-15T08:30:56.819Z,1508
2018-06-15T08:32:06.890Z,1524
2018-06-15T08:33:17.018Z,1556
2018-06-15T08:34:26.839Z,1600
2018-06-15T08:35:36.661Z,1620
2018-06-15T08:36:46.809Z,1628
2018-06-15T08:37:56.908Z,1632
2018-06-15T08:39:07.000Z,1648
2018-06-15T08:40:17.096Z,1708
2018-06-15T08:41:27.169Z,1812
2018-06-15T08:42:47.244Z,1936
2018-06-15T08:43:57.347Z,2060
2018-06-15T08:45:07.442Z,2160
2018-06-15T08:46:17.538Z,2260
2018-06-15T08:47:27.662Z,2360
2018-06-15T08:48:37.771Z,2396
2018-06-15T08:49:47.869Z,2408
2018-06-15T08:50:57.953Z,2452
2018-06-15T08:52:07.789Z,2500
2018-06-15T08:53:17.928Z,2532
2018-06-15T08:54:28.024Z,2520
2018-06-15T08:55:37.845Z,2476
2018-06-15T08:56:47.930Z,2464
2018-06-15T08:57:59.119Z,2488
2018-06-15T08:59:09.279Z,2540
2018-06-15T09:00:19.368Z,2616
2018-06-15T09:01:29.462Z,2748
2018-06-15T09:02:39.581Z,2872
2018-06-15T09:03:49.660Z,3000
2018-06-15T09:04:59.498Z,3188
2018-06-15T09:06:09.624Z,3436
2018-06-15T09:07:19.443Z,3712
2018-06-15T09:08:29.269Z,3920
2018-06-15T09:09:39.347Z,4192
2018-06-15T09:10:49.495Z,4472
2018-06-15T09:11:59.335Z,4636
2018-06-15T09:13:09.431Z,4776
2018-06-15T09:14:19.245Z,4884
2018-06-15T09:15:29.322Z,4944
2018-06-15T09:16:38.927Z,5020
2018-06-15T09:17:49.013Z,5260
2018-06-15T09:18:59.086Z,5624
2018-06-15T09:20:08.892Z,5992
2018-06-15T09:21:18.999Z,6360
2018-06-15T09:22:29.133Z,6704
2018-06-15T09:23:39.212Z,7068
2018-06-15T09:24:49.031Z,7432
2018-06-15T09:25:59.115Z,7688
2018-06-15T09:27:08.936Z,7872
2018-06-15T09:28:18.760Z,8096
2018-06-15T09:29:28.855Z,8256
2018-06-15T09:30:38.670Z,8388
2018-06-15T09:31:48.763Z,8520
2018-06-15T09:32:58.861Z,8652
2018-06-15T09:34:09.221Z,8768
2018-06-15T09:35:19.323Z,8820
2018-06-15T09:36:29.238Z,8772
2018-06-15T09:37:39.342Z,8756
2018-06-15T09:38:49.194Z,8784
2018-06-15T09:39:59.275Z,8760
2018-06-15T09:41:09.425Z,8824
2018-06-15T09:42:19.526Z,8964
2018-06-15T09:43:29.610Z,8972
2018-06-15T09:44:39.686Z,9040
2018-06-15T09:45:49.770Z,9056
2018-06-15T09:46:59.838Z,9120
2018-06-15T09:48:09.971Z,9132
2018-06-15T09:49:20.095Z,8996
2018-06-15T09:50:29.930Z,8752
2018-06-15T09:51:39.805Z,8644
2018-06-15T09:52:49.982Z,8528
2018-06-15T09:54:00.254Z,8488
2018-06-15T09:55:10.079Z,8172
2018-06-15T09:56:20.168Z,7780
2018-06-15T09:57:30.273Z,7328
2018-06-15T09:58:40.402Z,7000
2018-06-15T09:59:49.710Z,6800
2018-06-15T10:00:59.807Z,6808
2018-06-15T10:02:09.906Z,6824
2018-06-15T10:03:19.473Z,6804
2018-06-15T10:04:29.568Z,6576
2018-06-15T10:05:39.665Z,6492
2018-06-15T10:06:49.761Z,6480
2018-06-15T10:07:59.849Z,6500
2018-06-15T10:09:09.949Z,6584
2018-06-15T10:10:19.774Z,6404
2018-06-15T10:11:29.592Z,6536
2018-06-15T10:12:39.689Z,6860
2018-06-15T10:13:49.787Z,6680
2018-06-15T10:14:59.869Z,6920
2018-06-15T10:16:09.978Z,6500
2018-06-15T10:17:20.068Z,6492
2018-06-15T10:18:30.169Z,7448
2018-06-15T10:19:40.249Z,7012
2018-06-15T10:20:50.350Z,7992
2018-06-15T10:22:00.438Z,7848
2018-06-15T10:23:10.261Z,7844
2018-06-15T10:24:20.406Z,7904
2018-06-15T10:25:30.245Z,7828
2018-06-15T10:26:40.365Z,7772
2018-06-15T10:27:50.489Z,7656
2018-06-15T10:29:00.364Z,7864
2018-06-15T10:30:10.489Z,7768
2018-06-15T10:31:20.588Z,7672
2018-06-15T10:32:30.437Z,5840
2018-06-15T10:33:40.268Z,7444
2018-06-15T10:34:50.387Z,7156
2018-06-15T10:36:00.588Z,6988
2018-06-15T10:37:10.572Z,7420
2018-06-15T10:38:20.850Z,7528
2018-06-15T10:39:31.313Z,8800
2018-06-15T10:40:41.745Z,9044
2018-06-15T10:41:51.417Z,8972
2018-06-15T10:43:01.245Z,6456
2018-06-15T10:44:11.351Z,6384
2018-06-15T10:45:21.145Z,7364
2018-06-15T10:46:31.235Z,7524
2018-06-15T10:47:41.102Z,9400
2018-06-15T10:48:50.932Z,8008
2018-06-15T10:50:00.745Z,6752
2018-06-15T10:51:10.842Z,6916
2018-06-15T10:52:20.659Z,7132
2018-06-15T10:53:30.744Z,9240
2018-06-15T10:54:40.821Z,9920
2018-06-15T10:55:50.901Z,9692
2018-06-15T10:57:00.985Z,7524
2018-06-15T10:58:10.832Z,9232
2018-06-15T10:59:20.922Z,7096
2018-06-15T11:00:30.750Z,9564
2018-06-15T11:01:40.574Z,8028
2018-06-15T11:02:50.675Z,6772
2018-06-15T11:04:00.788Z,6920
2018-06-15T11:05:10.870Z,7000
2018-06-15T11:06:20.955Z,7112
2018-06-15T11:07:31.027Z,7324
2018-06-15T11:08:41.283Z,8008
2018-06-15T11:09:51.100Z,7180
2018-06-15T11:11:00.946Z,7048
2018-06-15T11:12:11.037Z,6932
2018-06-15T11:13:21.159Z,6720
2018-06-15T11:14:31.459Z,6352
2018-06-15T11:15:41.470Z,6172
2018-06-15T11:16:51.558Z,6272
2018-06-15T11:18:01.382Z,8376
2018-06-15T11:19:11.496Z,6460
2018-06-15T11:20:21.654Z,6564
2018-06-15T11:21:31.756Z,6692
2018-06-15T11:22:41.861Z,6660
2018-06-15T11:23:51.678Z,6440
2018-06-15T11:25:01.492Z,6236
2018-06-15T11:26:11.349Z,6344
2018-06-15T11:27:21.405Z,6360
2018-06-15T11:28:31.490Z,6408
2018-06-15T11:29:41.790Z,6672
2018-06-15T11:30:51.647Z,7068
2018-06-15T11:32:01.782Z,9688
2018-06-15T11:33:11.627Z,8004
2018-06-15T11:34:21.710Z,7876
2018-06-15T11:35:31.854Z,7844
2018-06-15T11:36:41.948Z,7800
2018-06-15T11:37:51.788Z,7664
2018-06-15T11:39:01.881Z,7612
2018-06-15T11:40:11.975Z,8000
2018-06-15T11:41:22.680Z,8496
2018-06-15T11:42:32.837Z,9116
2018-06-15T11:43:42.936Z,9012
2018-06-15T11:44:53.049Z,8920
2018-06-15T11:46:02.891Z,8352
2018-06-15T11:47:12.987Z,8368
2018-06-15T11:48:23.099Z,8356
2018-06-15T11:49:33.186Z,8132
2018-06-15T11:50:43.264Z,8108
2018-06-15T11:51:53.088Z,8168
2018-06-15T11:53:03.170Z,8280
2018-06-15T11:54:13.263Z,8204
2018-06-15T11:55:23.376Z,8032
2018-06-15T11:56:33.474Z,7764
2018-06-15T11:57:43.568Z,7376
2018-06-15T11:58:53.408Z,6976
2018-06-15T12:00:03.529Z,6564
2018-06-15T12:01:13.640Z,6140
2018-06-15T12:02:23.754Z,5744
2018-06-15T12:03:33.925Z,5412
2018-06-15T12:04:44.047Z,5168
2018-06-15T12:05:54.203Z,5008
2018-06-15T12:07:04.336Z,4884
2018-06-15T12:08:14.179Z,4808
2018-06-15T12:09:24.284Z,4716
2018-06-15T12:10:34.370Z,4612
2018-06-15T12:11:44.450Z,4544
2018-06-15T12:12:54.524Z,4500
2018-06-15T12:14:04.621Z,4456
2018-06-15T12:15:14.731Z,4404
2018-06-15T12:16:24.546Z,4372
2018-06-15T12:17:34.644Z,4356
2018-06-15T12:18:44.480Z,4396
2018-06-15T12:19:54.564Z,4460
2018-06-15T12:21:04.693Z,4600
2018-06-15T12:22:14.549Z,4764
2018-06-15T12:23:24.378Z,4944
2018-06-15T12:24:34.469Z,5104
2018-06-15T12:25:44.271Z,5220
2018-06-15T12:26:54.598Z,5328
2018-06-15T12:28:04.414Z,5416
2018-06-15T12:29:14.509Z,5500
2018-06-15T12:30:24.603Z,5584
2018-06-15T12:31:34.695Z,5628
2018-06-15T12:32:45.029Z,5660
2018-06-15T12:33:55.202Z,5684
2018-06-15T12:35:05.022Z,5688
2018-06-15T12:36:15.093Z,5708
2018-06-15T12:37:24.661Z,5676
2018-06-15T12:38:34.743Z,5500
2018-06-15T12:39:44.826Z,5224
2018-06-15T12:40:54.902Z,5008
2018-06-15T12:42:04.998Z,4860
2018-06-15T12:43:15.067Z,4808
2018-06-15T12:44:25.149Z,4848
2018-06-15T12:45:35.452Z,4940
2018-06-15T12:46:45.595Z,5048
2018-06-15T12:47:55.674Z,5160
2018-06-15T12:49:05.783Z,5260
2018-06-15T12:50:15.602Z,5372
2018-06-15T12:51:25.678Z,5496
2018-06-15T12:52:34.983Z,5616
2018-06-15T12:53:44.853Z,5744
2018-06-15T12:54:54.431Z,5852
2018-06-15T12:56:04.257Z,5952
2018-06-15T12:57:13.951Z,5992
2018-06-15T12:58:23.807Z,6028
2018-06-15T12:59:33.638Z,6024
2018-06-15T13:00:43.477Z,6028
2018-06-15T13:01:53.303Z,6004
2018-06-15T13:03:03.116Z,5968
2018-06-15T13:04:12.679Z,5916
2018-06-15T13:05:22.774Z,5896
2018-06-15T13:06:32.860Z,5856
2018-06-15T13:07:43.038Z,5780
2018-06-15T13:08:52.595Z,5756
2018-06-15T13:10:02.682Z,5756
2018-06-15T13:11:12.784Z,5808
2018-06-15T13:12:22.632Z,5896
2018-06-15T13:13:32.505Z,6028
2018-06-15T13:14:42.330Z,6176
2018-06-15T13:15:52.419Z,6360
2018-06-15T13:17:02.230Z,6532
2018-06-15T13:18:12.058Z,6700
2018-06-15T13:19:21.886Z,6864
2018-06-15T13:20:31.984Z,6968
2018-06-15T13:21:42.076Z,6980
2018-06-15T13:22:51.639Z,7024
2018-06-15T13:24:01.190Z,7004
2018-06-15T13:25:10.481Z,6968
2018-06-15T13:26:20.573Z,6928
2018-06-15T13:27:30.418Z,6960
2018-06-15T13:28:40.249Z,7276
2018-06-15T13:29:49.578Z,7644
2018-06-15T13:30:59.718Z,7516
2018-06-15T13:32:09.274Z,7500
2018-06-15T13:33:19.373Z,7612
2018-06-15T13:34:29.217Z,7916
2018-06-15T13:35:38.792Z,7588
2018-06-15T13:36:48.948Z,7332
2018-06-15T13:37:58.792Z,7156
2018-06-15T13:39:08.908Z,7048
2018-06-15T13:40:19.014Z,7120
2018-06-15T13:41:29.117Z,7152
2018-06-15T13:42:38.987Z,7072
2018-06-15T13:43:48.548Z,7064
2018-06-15T13:44:58.380Z,7020
2018-06-15T13:46:08.479Z,7056
2018-06-15T13:47:18.319Z,7172
2018-06-15T13:48:28.204Z,7364
2018-06-15T13:49:37.782Z,7592
2018-06-15T13:50:47.351Z,7988
2018-06-15T13:51:57.450Z,7924
2018-06-15T13:53:07.557Z,7892
2018-06-15T13:54:17.124Z,7948
2018-06-15T13:55:27.212Z,8116
2018-06-15T13:56:37.321Z,7644
2018-06-15T13:57:47.180Z,7552
2018-06-15T13:58:57.268Z,6916
2018-06-15T14:00:06.870Z,6648
2018-06-15T14:01:17.114Z,6588
2018-06-15T14:02:26.933Z,6632
2018-06-15T14:03:36.742Z,7312
2018-06-15T14:04:46.028Z,7228
2018-06-15T14:05:55.910Z,7472
2018-06-15T14:07:05.604Z,6960
2018-06-15T14:08:15.892Z,6964
2018-06-15T14:09:25.978Z,7288
2018-06-15T14:10:35.821Z,8760
2018-06-15T14:11:45.967Z,8856
2018-06-15T14:12:56.228Z,8416
2018-06-15T14:14:05.789Z,8644
2018-06-15T14:15:16.116Z,8648
2018-06-15T14:16:25.943Z,8660
2018-06-15T14:17:35.862Z,8068
2018-06-15T14:18:45.165Z,7164
2018-06-15T14:19:55.278Z,7388
2018-06-15T14:21:05.389Z,7380
2018-06-15T14:22:14.949Z,7528
2018-06-15T14:23:25.034Z,8300
2018-06-15T14:24:35.130Z,7860
2018-06-15T14:25:44.423Z,7872
2018-06-15T14:26:54.533Z,7116
2018-06-15T14:28:04.608Z,6040
2018-06-15T14:29:14.574Z,5976
2018-06-15T14:30:23.905Z,6256
2018-06-15T14:31:33.478Z,7360
2018-06-15T14:32:43.045Z,7248
2018-06-15T14:33:53.143Z,7524
2018-06-15T14:35:03.002Z,7052
2018-06-15T14:36:13.120Z,6808
2018-06-15T14:37:22.975Z,7076
2018-06-15T14:38:33.079Z,7432
2018-06-15T14:39:43.417Z,7456
2018-06-15T14:40:53.576Z,7472
2018-06-15T14:42:03.405Z,6992
2018-06-15T14:43:13.490Z,7452
2018-06-15T14:44:23.351Z,7676
2018-06-15T14:45:33.196Z,7684
2018-06-15T14:46:43.121Z,7632
2018-06-15T14:47:52.429Z,7176
2018-06-15T14:49:02.257Z,7256
2018-06-15T14:50:12.095Z,7360
2018-06-15T14:51:21.976Z,7500
2018-06-15T14:52:32.074Z,7376
2018-06-15T14:53:41.881Z,7196
2018-06-15T14:54:51.713Z,7036
2018-06-15T14:56:01.801Z,6544
2018-06-15T14:57:11.897Z,7032
2018-06-15T14:58:22.074Z,6964
2018-06-15T14:59:31.642Z,5520
2018-06-15T15:00:41.820Z,6904
2018-06-15T15:01:51.120Z,5308
2018-06-15T15:03:01.223Z,5192
2018-06-15T15:04:11.314Z,5956
2018-06-15T15:05:21.423Z,6536
2018-06-15T15:06:31.553Z,4972
2018-06-15T15:07:41.397Z,4936
2018-06-15T15:08:51.222Z,4808
2018-06-15T15:10:01.358Z,4844
2018-06-15T15:11:11.195Z,4956
2018-06-15T15:12:20.758Z,4916
2018-06-15T15:13:30.341Z,4824
2018-06-15T15:14:39.876Z,4768
2018-06-15T15:15:49.768Z,4960
2018-06-15T15:16:59.875Z,5096
2018-06-15T15:18:10.054Z,5160
2018-06-15T15:19:19.793Z,5248
2018-06-15T15:20:30.059Z,5392
2018-06-15T15:21:39.900Z,6616
2018-06-15T15:22:49.196Z,6396
2018-06-15T15:23:59.089Z,5684
2018-06-15T15:25:08.921Z,4880
2018-06-15T15:26:19.029Z,4928
2018-06-15T15:27:28.595Z,4740
2018-06-15T15:28:38.716Z,4612
2018-06-15T15:29:48.567Z,5244
2018-06-15T15:30:58.141Z,5168
2018-06-15T15:32:07.956Z,4576
2018-06-15T15:33:17.522Z,3852
2018-06-15T15:34:27.614Z,3004
2018-06-15T15:35:36.652Z,2568
2018-06-15T15:36:46.743Z,2264
2018-06-15T15:37:56.848Z,2064
2018-06-15T15:39:06.961Z,1948
2018-06-15T15:40:17.047Z,1876
2018-06-15T15:41:26.622Z,1784
2018-06-15T15:42:36.178Z,1740
2018-06-15T15:43:46.244Z,1732
2018-06-15T15:44:56.171Z,1748
2018-06-15T15:46:06.046Z,1792
2018-06-15T15:47:16.133Z,1872
2018-06-15T15:48:26.241Z,1972
2018-06-15T15:49:36.072Z,2092
2018-06-15T15:50:46.186Z,2220
2018-06-15T15:51:55.753Z,2356
2018-06-15T15:53:05.319Z,2496
2018-06-15T15:54:15.168Z,2656
2018-06-15T15:55:25.008Z,2844
2018-06-15T15:56:34.874Z,2988
2018-06-15T15:57:45.048Z,3116
2018-06-15T15:58:54.940Z,3216
2018-06-15T16:00:04.796Z,3260
2018-06-15T16:01:14.614Z,3316
2018-06-15T16:02:24.458Z,3340
2018-06-15T16:03:34.323Z,3328
2018-06-15T16:04:44.159Z,3320
2018-06-15T16:05:54.017Z,3352
2018-06-15T16:07:04.161Z,3380
2018-06-15T16:08:13.716Z,3396
2018-06-15T16:09:23.815Z,3448
2018-06-15T16:10:33.405Z,3544
2018-06-15T16:11:42.983Z,3648
2018-06-15T16:12:52.276Z,3688
2018-06-15T16:14:02.445Z,3688
2018-06-15T16:15:12.316Z,3672
2018-06-15T16:16:21.886Z,3696
2018-06-15T16:17:31.491Z,3700
2018-06-15T16:18:41.311Z,3680
2018-06-15T16:19:51.200Z,3592
2018-06-15T16:21:00.753Z,3480
2018-06-15T16:22:10.584Z,3344